Time;durP1;ratioP1;P1;durP2;ratioP2;P2;SDS_P1;SDS_P2;PMS_P1;PMS_P2;Temp;Humidity;BMP_temperature;BMP_pressure;BME280_temperature;BME280_humidity;BME280_pressure;Samples;Min_cycle;Max_cycle;Signal;HPM_P1;HPM_P2
2021/08/07 00:00:37;;;;;;;2.90;1.37;;;;;;;13.33;97.81;95546.03;5060845;28;20036;-81
2021/08/07 00:03:03;;;;;;;5.53;1.63;;;;;;;13.28;98.39;95546.63;5059025;28;20575;-81
2021/08/07 00:05:29;;;;;;;3.67;1.27;;;;;;;13.28;98.22;95549.28;5087591;28;20088;-81
2021/08/07 00:07:54;;;;;;;3.43;1.47;;;;;;;13.20;98.49;95542.25;5092240;28;20394;-79
2021/08/07 00:10:20;;;;;;;3.50;1.70;;;;;;;13.14;98.94;95543.03;5077693;28;20064;-80
2021/08/07 00:12:46;;;;;;;4.80;1.37;;;;;;;13.17;98.96;95532.09;5072069;28;20058;-81
2021/08/07 00:15:12;;;;;;;4.07;1.37;;;;;;;13.06;99.28;95537.91;5083501;28;20032;-78
2021/08/07 00:17:38;;;;;;;4.93;1.77;;;;;;;12.97;99.90;95542.50;5069863;28;20032;-80
2021/08/07 00:20:05;;;;;;;5.03;1.67;;;;;;;12.93;99.99;95535.97;5067069;28;20052;-81
2021/08/07 00:22:31;;;;;;;3.77;1.50;;;;;;;12.91;100.00;95532.72;5085347;28;20028;-77
2021/08/07 00:24:57;;;;;;;4.93;1.63;;;;;;;12.96;100.00;95530.31;5085113;28;20039;-80
2021/08/07 00:27:23;;;;;;;3.03;1.47;;;;;;;12.92;100.00;95533.53;5057882;28;20524;-81
2021/08/07 00:29:48;;;;;;;5.53;2.30;;;;;;;12.83;100.00;95522.28;5090301;28;20032;-79
2021/08/07 00:32:14;;;;;;;4.63;1.47;;;;;;;12.84;100.00;95531.81;5079138;28;20084;-76
2021/08/07 00:34:42;;;;;;;5.20;1.30;;;;;;;12.89;100.00;95523.34;5070748;28;20038;-80
2021/08/07 00:37:09;;;;;;;3.60;1.37;;;;;;;12.93;100.00;95525.41;5062565;28;20017;-80
2021/08/07 00:39:45;;;;;;;5.87;1.67;;;;;;;12.97;99.92;95525.84;5087879;28;20048;-77
2021/08/07 00:42:12;;;;;;;4.50;1.50;;;;;;;13.03;99.60;95524.28;5076735;28;20093;-80
2021/08/07 00:44:38;;;;;;;3.13;1.50;;;;;;;13.06;99.53;95523.88;5050602;28;20571;-79
2021/08/07 00:47:04;;;;;;;4.57;1.50;;;;;;;13.09;99.19;95519.03;5061794;28;20044;-79
2021/08/07 00:49:31;;;;;;;4.03;1.40;;;;;;;13.19;98.51;95521.34;5063066;28;20032;-80
2021/08/07 00:51:58;;;;;;;6.50;1.80;;;;;;;13.23;98.17;95517.31;5067843;28;20058;-78
2021/08/07 00:54:24;;;;;;;5.07;1.60;;;;;;;13.23;98.54;95514.66;5085480;28;20020;-76
2021/08/07 00:56:55;;;;;;;4.77;1.53;;;;;;;13.19;98.77;95524.78;5064382;28;20032;-80
2021/08/07 00:59:21;;;;;;;4.10;1.53;;;;;;;13.24;98.71;95521.59;5074040;28;20085;-78
2021/08/07 01:02:01;;;;;;;6.07;1.63;;;;;;;13.23;98.77;95517.31;5057792;28;20443;-76
2021/08/07 01:04:44;;;;;;;3.90;1.50;;;;;;;13.33;98.42;95514.34;5061564;28;20037;-80
2021/08/07 01:07:30;;;;;;;4.40;1.40;;;;;;;13.37;98.49;95513.75;5074238;28;20395;-80
2021/08/07 01:10:01;;;;;;;5.53;1.73;;;;;;;13.38;98.13;95509.28;5078896;28;20062;-79
2021/08/07 01:13:02;;;;;;;6.67;1.70;;;;;;;13.35;98.76;95520.28;5061821;28;20035;-78
2021/08/07 01:15:32;;;;;;;2.57;1.30;;;;;;;13.41;97.53;95522.94;5070510;28;20050;-80
2021/08/07 01:18:10;;;;;;;4.07;1.50;;;;;;;13.44;97.36;95519.91;5072083;28;20485;-79
2021/08/07 01:20:48;;;;;;;5.03;1.67;;;;;;;13.43;97.66;95514.81;5078118;28;20035;-78
2021/08/07 01:23:29;;;;;;;2.87;1.33;;;;;;;13.44;97.53;95513.81;5082198;28;20166;-80
2021/08/07 01:26:14;;;;;;;4.67;1.50;;;;;;;13.33;98.24;95517.00;5074941;28;20040;-80
2021/08/07 01:28:51;;;;;;;3.93;1.27;;;;;;;13.32;98.82;95510.91;5065582;28;20028;-78
2021/08/07 01:31:21;;;;;;;3.20;1.23;;;;;;;13.32;98.83;95518.00;5077569;28;20121;-76
2021/08/07 01:33:48;;;;;;;7.10;1.40;;;;;;;13.48;97.55;95522.16;5068271;28;20036;-80
2021/08/07 01:36:20;;;;;;;3.00;1.17;;;;;;;13.56;96.39;95514.09;5053647;28;20044;-78
2021/08/07 01:38:52;;;;;;;3.70;1.27;;;;;;;13.52;96.82;95502.28;5052246;28;20040;-80
2021/08/07 01:41:22;;;;;;;3.03;1.40;;;;;;;13.46;96.88;95498.59;5078051;28;20059;-80
2021/08/07 01:43:56;;;;;;;4.43;1.53;;;;;;;13.43;97.17;95498.97;5078248;28;20043;-79
2021/08/07 01:46:31;;;;;;;4.03;1.63;;;;;;;13.40;97.39;95489.59;5078747;28;20077;-80
2021/08/07 01:49:14;;;;;;;5.57;1.90;;;;;;;13.35;98.46;95492.03;5060973;28;20036;-78
2021/08/07 01:51:57;;;;;;;3.43;1.40;;;;;;;13.30;98.96;95486.50;5070671;28;20040;-79
2021/08/07 01:54:34;;;;;;;4.10;1.60;;;;;;;13.25;99.27;95486.28;5072606;28;20044;-80
2021/08/07 01:57:11;;;;;;;4.83;1.47;;;;;;;13.25;99.99;95478.38;5047894;28;20110;-80
2021/08/07 01:59:39;;;;;;;2.70;0.87;;;;;;;13.21;99.29;95474.44;5071839;28;20039;-80
2021/08/07 02:02:07;;;;;;;5.30;1.43;;;;;;;13.21;99.70;95472.63;5067056;28;20446;-80
2021/08/07 02:04:44;;;;;;;5.33;1.40;;;;;;;13.25;99.36;95473.09;5070184;28;20469;-78
2021/08/07 02:07:18;;;;;;;3.07;1.30;;;;;;;13.26;99.24;95466.78;5078587;28;20024;-77
2021/08/07 02:09:48;;;;;;;4.90;1.40;;;;;;;13.26;99.02;95464.16;5060812;28;20037;-80
2021/08/07 02:12:15;;;;;;;5.03;1.50;;;;;;;13.26;99.20;95463.34;5057795;28;20048;-79
2021/08/07 02:14:48;;;;;;;2.53;1.30;;;;;;;13.27;99.36;95472.88;5053030;28;20047;-80
2021/08/07 02:17:18;;;;;;;7.03;1.40;;;;;;;13.28;99.14;95469.22;5064191;28;20452;-79
2021/08/07 02:19:44;;;;;;;4.80;1.47;;;;;;;13.32;99.12;95466.00;5066154;28;20088;-80
2021/08/07 02:22:11;;;;;;;2.20;1.30;;;;;;;13.31;98.89;95464.38;5077069;28;20062;-80
2021/08/07 02:24:40;;;;;;;3.77;1.73;;;;;;;13.31;98.65;95453.81;5071159;28;20443;-79
2021/08/07 02:27:09;;;;;;;5.07;2.10;;;;;;;13.32;98.75;95444.88;5067586;28;20108;-80
2021/08/07 02:29:36;;;;;;;3.63;1.60;;;;;;;13.32;99.35;95460.72;5075714;28;20100;-80
2021/08/07 02:32:09;;;;;;;3.00;1.20;;;;;;;13.33;99.35;95469.47;5074601;28;20024;-80
2021/08/07 02:34:37;;;;;;;5.73;1.67;;;;;;;13.37;98.87;95468.06;5081786;28;20494;-75
2021/08/07 02:37:07;;;;;;;5.10;1.70;;;;;;;13.40;98.21;95457.91;5084732;28;20512;-79
2021/08/07 02:39:36;;;;;;;4.77;1.70;;;;;;;13.33;98.61;95448.34;5052191;28;20033;-80
2021/08/07 02:42:04;;;;;;;4.77;1.80;;;;;;;13.39;98.42;95450.19;5068136;28;20028;-81
2021/08/07 02:44:38;;;;;;;5.90;1.48;;;;;;;13.42;98.26;95449.81;5061222;28;20123;-80
2021/08/07 02:47:04;;;;;;;4.43;1.37;;;;;;;13.43;98.35;95446.97;5060832;28;20102;-81
2021/08/07 02:49:30;;;;;;;3.23;1.47;;;;;;;13.37;98.29;95434.53;5067799;28;20024;-78
2021/08/07 02:52:00;;;;;;;5.47;1.50;;;;;;;13.32;98.77;95438.78;5083907;28;20089;-80
2021/08/07 02:54:27;;;;;;;4.83;1.40;;;;;;;13.26;99.08;95437.75;5076665;28;20038;-81
2021/08/07 02:56:53;;;;;;;4.80;1.60;;;;;;;13.27;99.27;95439.34;5060519;28;20067;-80
2021/08/07 02:59:20;;;;;;;4.30;1.53;;;;;;;13.29;99.33;95436.53;5063836;28;20032;-80
2021/08/07 03:01:47;;;;;;;6.63;1.47;;;;;;;13.31;99.21;95442.44;5062520;28;20032;-79
2021/08/07 03:04:13;;;;;;;5.40;1.60;;;;;;;13.35;98.89;95439.22;5071719;28;20573;-78
2021/08/07 03:06:39;;;;;;;5.53;1.60;;;;;;;13.37;98.63;95433.72;5072120;28;20025;-79
2021/08/07 03:09:05;;;;;;;3.77;1.03;;;;;;;13.38;98.53;95420.34;5069566;28;20031;-79
2021/08/07 03:11:37;;;;;;;5.07;1.87;;;;;;;13.35;98.78;95420.72;5077406;28;20043;-76
2021/08/07 03:14:05;;;;;;;3.60;1.30;;;;;;;13.36;98.85;95427.63;5078887;28;20035;-80
2021/08/07 03:16:36;;;;;;;5.90;1.53;;;;;;;13.35;98.83;95427.84;5067876;28;20048;-79
2021/08/07 03:19:05;;;;;;;3.37;1.43;;;;;;;13.35;98.41;95428.66;5084222;28;20037;-79
2021/08/07 03:21:31;;;;;;;6.00;1.77;;;;;;;13.37;98.28;95423.97;5068379;28;20393;-80
2021/08/07 03:24:00;;;;;;;3.53;1.50;;;;;;;13.46;98.06;95421.19;5090299;28;20111;-80
2021/08/07 03:26:28;;;;;;;5.23;1.83;;;;;;;13.54;98.13;95427.09;5059744;28;20403;-80
2021/08/07 03:28:59;;;;;;;4.70;1.97;;;;;;;13.56;97.97;95421.63;5075926;28;20029;-79
2021/08/07 03:31:25;;;;;;;14.20;2.07;;;;;;;13.57;97.20;95420.59;5098901;28;20063;-77
2021/08/07 03:33:52;;;;;;;3.97;1.50;;;;;;;13.58;97.46;95427.50;5077739;28;20031;-80
2021/08/07 03:36:18;;;;;;;5.13;1.60;;;;;;;13.62;97.29;95421.66;5081123;28;20397;-80
2021/08/07 03:38:50;;;;;;;4.13;1.90;;;;;;;13.75;96.54;95420.03;5072752;28;20619;-80
2021/08/07 03:41:16;;;;;;;5.50;1.80;;;;;;;13.83;95.64;95422.53;5065678;28;20043;-79
2021/08/07 03:43:42;;;;;;;4.90;2.20;;;;;;;13.85;95.45;95417.88;5088030;28;20144;-80
2021/08/07 03:46:08;;;;;;;6.37;1.90;;;;;;;13.84;95.36;95405.66;5066590;28;20032;-80
2021/08/07 03:48:34;;;;;;;6.80;2.40;;;;;;;13.81;95.62;95406.84;5065726;28;20473;-79
2021/08/07 03:50:59;;;;;;;6.30;1.87;;;;;;;13.84;95.27;95400.34;5083600;28;20127;-79
2021/08/07 03:53:35;;;;;;;6.73;1.90;;;;;;;13.73;96.14;95414.97;5081814;28;20127;-77
2021/08/07 03:56:01;;;;;;;4.53;1.97;;;;;;;13.71;96.17;95409.06;5075148;28;20677;-80
2021/08/07 03:58:28;;;;;;;5.57;1.70;;;;;;;13.67;96.31;95410.47;5066423;28;20020;-79
2021/08/07 04:01:11;;;;;;;5.47;1.80;;;;;;;13.74;95.93;95413.94;5086664;28;20298;-79
2021/08/07 04:03:37;;;;;;;4.33;1.70;;;;;;;13.75;95.40;95409.47;5061461;28;20036;-79
2021/08/07 04:06:03;;;;;;;3.67;1.33;;;;;;;13.70;95.78;95409.28;5077972;28;20078;-80
2021/08/07 04:08:31;;;;;;;7.80;2.07;;;;;;;13.70;96.00;95409.28;5066023;28;20024;-80
2021/08/07 04:10:58;;;;;;;6.60;2.67;;;;;;;13.74;95.88;95403.38;5073194;28;20034;-77
2021/08/07 04:13:28;;;;;;;4.93;2.10;;;;;;;13.81;95.16;95398.91;5079008;28;20166;-78
2021/08/07 04:15:55;;;;;;;5.90;2.10;;;;;;;13.82;95.31;95387.34;5065635;28;20483;-80
2021/08/07 04:18:20;;;;;;;6.00;2.37;;;;;;;13.72;95.54;95381.66;5088912;28;20030;-80
2021/08/07 04:20:48;;;;;;;4.10;1.70;;;;;;;13.71;95.80;95382.63;5057822;28;20040;-80
2021/08/07 04:23:14;;;;;;;4.63;1.90;;;;;;;13.72;95.76;95383.47;5057403;28;20021;-77
2021/08/07 04:25:43;;;;;;;6.50;2.10;;;;;;;13.73;95.38;95396.47;5082648;28;20078;-80
2021/08/07 04:28:09;;;;;;;7.40;1.83;;;;;;;13.82;95.32;95392.66;5054933;28;20025;-79
2021/08/07 04:30:37;;;;;;;5.17;1.80;;;;;;;13.85;94.90;95396.72;5065921;28;20031;-80
2021/08/07 04:33:04;;;;;;;6.23;1.70;;;;;;;13.83;95.20;95386.34;5078013;28;20013;-80
2021/08/07 04:35:33;;;;;;;5.07;1.70;;;;;;;13.90;94.79;95384.50;5071381;28;20051;-80
2021/08/07 04:38:00;;;;;;;6.70;1.67;;;;;;;14.00;93.66;95389.41;5063195;28;20484;-79
2021/08/07 04:40:32;;;;;;;4.47;1.80;;;;;;;14.07;93.91;95395.53;5073785;28;20846;-79
2021/08/07 04:43:04;;;;;;;;;;;;;;;14.12;92.90;95393.09;5086455;28;20507;-79
2021/08/07 04:45:29;;;;;;;5.53;1.30;;;;;;;14.25;92.46;95392.31;5066009;28;19928;-79
2021/08/07 04:48:07;;;;;;;6.70;1.83;;;;;;;14.25;91.62;95392.31;5082609;28;20477;-78
2021/08/07 04:50:44;;;;;;;3.73;1.40;;;;;;;14.38;91.49;95379.09;5075073;28;20032;-80
2021/08/07 04:53:10;;;;;;;5.13;1.97;;;;;;;14.43;91.23;95382.94;5063350;28;20196;-78
2021/08/07 04:55:39;;;;;;;6.93;3.33;;;;;;;14.49;90.39;95387.44;5069092;28;20077;-79
2021/08/07 04:58:07;;;;;;;5.77;3.17;;;;;;;14.54;90.22;95383.16;5078364;28;20029;-80
2021/08/07 05:00:35;;;;;;;6.03;2.43;;;;;;;14.70;89.04;95379.28;5068807;28;20032;-80
2021/08/07 05:03:03;;;;;;;7.00;1.97;;;;;;;14.87;88.36;95378.84;5066436;28;20078;-79
2021/08/07 05:05:32;;;;;;;4.00;1.60;;;;;;;14.95;87.50;95374.13;5074247;28;20097;-79
2021/08/07 05:07:59;;;;;;;6.20;1.80;;;;;;;15.01;87.03;95375.16;5066038;28;20025;-80
2021/08/07 05:10:25;;;;;;;3.40;1.50;;;;;;;15.04;86.84;95369.44;5073071;28;20058;-80
2021/08/07 05:12:51;;;;;;;5.93;2.53;;;;;;;15.01;86.76;95372.50;5064162;28;20037;-79
2021/08/07 05:15:17;;;;;;;3.50;1.90;;;;;;;15.05;86.84;95371.06;5082320;28;20021;-80
2021/08/07 05:17:43;;;;;;;4.97;2.17;;;;;;;15.06;86.07;95370.06;5067711;28;20028;-79
2021/08/07 05:20:11;;;;;;;6.65;1.60;;;;;;;15.06;86.85;95378.00;5059131;28;20549;-80
2021/08/07 05:22:37;;;;;;;5.67;1.47;;;;;;;15.14;86.39;95384.91;5087770;28;20028;-79
2021/08/07 05:25:05;;;;;;;6.03;1.80;;;;;;;15.11;85.98;95369.44;5083083;28;20027;-80
2021/08/07 05:27:33;;;;;;;5.18;1.60;;;;;;;15.16;86.37;95359.84;5066709;28;20028;-80
2021/08/07 05:30:03;;;;;;;3.67;1.30;;;;;;;15.10;86.73;95360.66;5081739;28;20591;-80
2021/08/07 05:32:30;;;;;;;4.32;1.40;;;;;;;15.11;86.11;95362.28;5078272;28;20040;-79
2021/08/07 05:34:57;;;;;;;4.10;1.37;;;;;;;15.11;85.88;95359.63;5066802;28;20028;-81
2021/08/07 05:37:24;;;;;;;7.43;1.20;;;;;;;15.23;86.46;95373.88;5066593;28;20261;-80
2021/08/07 05:39:52;;;;;;;7.55;2.50;;;;;;;15.24;86.27;95364.91;5059871;28;20371;-80
2021/08/07 05:42:17;;;;;;;6.82;1.80;;;;;;;15.17;86.40;95371.25;5081040;28;20036;-77
2021/08/07 05:44:44;;;;;;;6.50;1.63;;;;;;;15.21;86.01;95359.22;5067944;28;20024;-78
2021/08/07 05:47:10;;;;;;;6.28;1.73;;;;;;;15.29;85.40;95357.16;5058656;28;20456;-78
2021/08/07 05:49:37;;;;;;;3.00;1.20;;;;;;;15.32;86.00;95359.38;5069649;28;20093;-79
2021/08/07 05:52:03;;;;;;;5.60;1.43;;;;;;;15.36;85.86;95362.41;5058073;28;20032;-80
2021/08/07 05:54:31;;;;;;;4.78;1.80;;;;;;;15.41;84.48;95367.06;5060440;28;20031;-80
2021/08/07 05:56:57;;;;;;;6.55;1.50;;;;;;;15.37;85.08;95371.97;5087321;28;20036;-80
2021/08/07 05:59:22;;;;;;;5.28;1.48;;;;;;;15.43;84.86;95367.69;5078981;28;20032;-75
2021/08/07 06:01:49;;;;;;;6.63;1.73;;;;;;;15.78;83.36;95366.31;5084934;28;20043;-80
2021/08/07 06:04:15;;;;;;;7.70;1.83;;;;;;;16.53;80.42;95356.78;5062958;28;20024;-80
2021/08/07 06:06:41;;;;;;;3.83;1.17;;;;;;;16.95;77.77;95363.16;5066684;28;20029;-80
2021/08/07 06:09:06;;;;;;;3.88;1.10;;;;;;;17.24;75.15;95360.81;5069813;28;20076;-80
2021/08/07 06:11:33;;;;;;;6.63;1.45;;;;;;;17.93;72.26;95358.72;5086351;28;20154;-79
2021/08/07 06:13:59;;;;;;;4.80;1.15;;;;;;;18.15;71.10;95359.84;5068006;28;20021;-81
2021/08/07 06:16:26;;;;;;;5.70;1.52;;;;;;;18.36;70.83;95345.19;5066590;28;20036;-79
2021/08/07 06:18:51;;;;;;;4.93;2.00;;;;;;;18.12;71.64;95354.97;5070936;28;20397;-79
2021/08/07 06:21:17;;;;;;;4.43;1.23;;;;;;;18.30;69.83;95348.75;5085747;28;20055;-77
2021/08/07 06:23:45;;;;;;;5.22;1.70;;;;;;;18.28;68.29;95345.53;5066709;28;20025;-81
2021/08/07 06:26:11;;;;;;;3.28;1.48;;;;;;;18.45;68.67;95340.34;5078803;28;20047;-81
2021/08/07 06:28:38;;;;;;;3.58;1.33;;;;;;;18.81;67.46;95334.81;5062691;28;20544;-80
2021/08/07 06:31:09;;;;;;;5.70;1.30;;;;;;;18.99;68.39;95333.88;5077835;28;20031;-80
2021/08/07 06:33:36;;;;;;;3.03;1.20;;;;;;;18.32;69.67;95339.50;5076136;28;20470;-81
2021/08/07 06:36:02;;;;;;;2.63;1.30;;;;;;;18.98;66.18;95353.56;5085435;28;20647;-80
2021/08/07 06:38:29;;;;;;;4.78;1.38;;;;;;;19.11;66.78;95349.00;5088285;28;20124;-81
2021/08/07 06:40:56;;;;;;;3.78;1.55;;;;;;;19.51;66.14;95351.72;5078667;28;20040;-82
2021/08/07 06:43:22;;;;;;;5.63;1.27;;;;;;;19.99;63.93;95359.34;5085714;28;20032;-82
2021/08/07 06:46:10;;;;;;;4.20;1.45;;;;;;;19.37;66.74;95361.84;5081993;28;20040;-79
2021/08/07 06:48:37;;;;;;;4.03;1.35;;;;;;;19.24;65.32;95359.44;5062233;28;20397;-80
2021/08/07 06:51:06;;;;;;;4.68;1.13;;;;;;;19.51;64.11;95360.50;5069037;28;20088;-81
2021/08/07 06:53:34;;;;;;;2.33;0.95;;;;;;;19.41;64.63;95372.84;5079766;28;20032;-82
2021/08/07 06:56:00;;;;;;;2.95;1.10;;;;;;;19.08;64.86;95375.09;5070138;28;20027;-80
2021/08/07 06:58:26;;;;;;;3.25;1.27;;;;;;;18.99;67.07;95376.50;5072836;28;20082;-82
2021/08/07 07:00:51;;;;;;;3.25;0.90;;;;;;;18.49;68.65;95374.25;5076211;28;20044;-81
2021/08/07 07:03:17;;;;;;;3.30;1.20;;;;;;;18.49;68.38;95358.28;5084243;28;20096;-81
2021/08/07 07:05:45;;;;;;;4.30;1.58;;;;;;;18.52;67.98;95357.81;5062086;28;20039;-80
2021/08/07 07:08:10;;;;;;;3.05;1.20;;;;;;;18.17;70.92;95352.44;5068391;28;20032;-82
2021/08/07 07:10:37;;;;;;;6.20;1.45;;;;;;;18.07;71.13;95363.63;5086119;28;20020;-80
2021/08/07 07:13:04;;;;;;;5.13;1.30;;;;;;;18.59;69.64;95358.50;5064344;28;20453;-82
2021/08/07 07:15:31;;;;;;;2.97;1.30;;;;;;;19.47;67.42;95362.03;5080368;28;20119;-82
2021/08/07 07:17:57;;;;;;;5.50;1.50;;;;;;;21.15;60.87;95349.94;5074429;28;20041;-80
2021/08/07 07:20:23;;;;;;;3.35;1.10;;;;;;;20.94;61.78;95344.31;5065997;28;20062;-81
2021/08/07 07:22:50;;;;;;;4.00;1.17;;;;;;;19.44;65.64;95346.50;5072977;28;20039;-82
2021/08/07 07:25:17;;;;;;;2.88;1.35;;;;;;;19.03;67.89;95336.88;5076143;28;20028;-81
2021/08/07 07:27:44;;;;;;;8.05;1.48;;;;;;;19.10;68.25;95339.41;5074082;28;20107;-81
2021/08/07 07:30:12;;;;;;;4.85;1.58;;;;;;;18.79;69.56;95328.91;5051426;28;20037;-82
2021/08/07 07:32:38;;;;;;;3.58;1.55;;;;;;;20.04;64.30;95320.44;5076397;28;20420;-80
2021/08/07 07:35:05;;;;;;;3.40;1.20;;;;;;;20.31;63.74;95321.41;5073091;28;20077;-80
2021/08/07 07:37:31;;;;;;;2.70;1.08;;;;;;;21.23;61.61;95321.94;5073529;28;20032;-82
2021/08/07 07:39:58;;;;;;;3.35;1.40;;;;;;;21.66;58.95;95315.81;5080810;28;20028;-82
2021/08/07 07:42:24;;;;;;;3.83;1.40;;;;;;;21.39;58.28;95305.06;5063692;28;20033;-82
2021/08/07 07:44:50;;;;;;;2.55;1.27;;;;;;;21.29;57.78;95302.25;5065687;28;20028;-82
2021/08/07 07:47:16;;;;;;;3.78;1.50;;;;;;;21.88;56.41;95297.84;5074019;28;20460;-81
2021/08/07 07:49:42;;;;;;;4.38;1.40;;;;;;;21.83;56.09;95297.81;5062461;28;20077;-81
2021/08/07 07:52:12;;;;;;;2.53;1.23;;;;;;;21.96;54.87;95304.59;5067516;28;20036;-82
2021/08/07 07:54:40;;;;;;;1.85;0.98;;;;;;;21.21;56.46;95308.03;5084036;28;20032;-83
2021/08/07 07:57:07;;;;;;;6.07;1.35;;;;;;;20.87;58.22;95321.50;5063759;28;20033;-82
2021/08/07 07:59:33;;;;;;;4.95;1.65;;;;;;;20.82;59.04;95308.06;5075948;28;20036;-81
2021/08/07 08:02:02;;;;;;;4.22;1.33;;;;;;;21.41;58.28;95319.00;5089448;28;20023;-80
2021/08/07 08:04:29;;;;;;;3.22;1.50;;;;;;;22.01;56.33;95326.09;5085693;28;20076;-82
2021/08/07 08:06:56;;;;;;;4.80;1.50;;;;;;;22.86;53.47;95330.78;5066262;28;20051;-80
2021/08/07 08:09:22;;;;;;;4.30;1.52;;;;;;;22.33;54.78;95339.53;5081085;28;20036;-82
2021/08/07 08:11:48;;;;;;;4.70;1.40;;;;;;;21.54;57.54;95350.72;5075381;28;20032;-82
2021/08/07 08:14:13;;;;;;;3.08;1.40;;;;;;;20.92;58.35;95358.97;5088799;28;20015;-78
2021/08/07 08:16:39;;;;;;;4.15;1.60;;;;;;;20.41;60.21;95361.63;5099580;28;20021;-79
2021/08/07 08:19:06;;;;;;;3.20;1.15;;;;;;;20.69;59.81;95351.94;5067142;28;20474;-81
2021/08/07 08:21:33;;;;;;;4.38;1.50;;;;;;;20.60;60.25;95350.75;5053215;28;20056;-80
2021/08/07 08:24:00;;;;;;;4.25;1.60;;;;;;;20.04;61.58;95344.47;5062525;28;20082;-82
2021/08/07 08:26:26;;;;;;;3.00;1.20;;;;;;;20.12;61.71;95350.22;5058178;28;20356;-81
2021/08/07 08:28:51;;;;;;;3.75;1.35;;;;;;;20.26;62.21;95342.72;5084094;28;20558;-81
2021/08/07 08:31:17;;;;;;;6.45;1.50;;;;;;;20.39;60.85;95338.91;5066388;28;20025;-81
2021/08/07 08:33:43;;;;;;;2.33;1.30;;;;;;;20.09;62.29;95333.88;5075930;28;20020;-82
2021/08/07 08:36:11;;;;;;;3.47;1.70;;;;;;;20.46;61.91;95332.34;5064660;28;20064;-82
2021/08/07 08:38:37;;;;;;;7.45;1.60;;;;;;;20.94;60.53;95336.28;5077830;28;20047;-82
2021/08/07 08:41:03;;;;;;;4.05;1.30;;;;;;;20.38;61.73;95324.72;5084212;28;20033;-80
2021/08/07 08:43:32;;;;;;;3.97;1.33;;;;;;;21.04;60.22;95327.59;5083220;28;20024;-82
2021/08/07 08:45:58;;;;;;;2.15;1.17;;;;;;;21.58;59.58;95310.91;5065482;28;20411;-81
2021/08/07 08:48:25;;;;;;;5.65;1.42;;;;;;;21.70;58.42;95300.09;5081703;28;20031;-82
2021/08/07 08:50:52;;;;;;;4.88;1.58;;;;;;;22.54;55.58;95286.91;5052826;28;20662;-83
2021/08/07 08:53:18;;;;;;;8.15;1.52;;;;;;;24.37;52.27;95277.09;5083269;28;20028;-80
2021/08/07 08:55:45;;;;;;;3.28;1.23;;;;;;;23.20;52.39;95278.44;5078270;28;20528;-82
2021/08/07 08:58:10;;;;;;;3.78;1.25;;;;;;;24.00;51.18;95272.78;5057981;28;20025;-83
2021/08/07 09:00:37;;;;;;;4.30;1.60;;;;;;;23.30;52.30;95273.13;5053421;28;20064;-82
2021/08/07 09:03:03;;;;;;;3.72;1.50;;;;;;;23.86;50.90;95277.06;5068349;28;20069;-83
2021/08/07 09:05:29;;;;;;;3.75;1.17;;;;;;;23.42;51.92;95272.09;5065157;28;20033;-82
2021/08/07 09:07:55;;;;;;;6.88;2.00;;;;;;;22.50;54.54;95275.09;5084702;28;20021;-83
2021/08/07 09:10:23;;;;;;;3.30;1.50;;;;;;;22.70;54.71;95274.44;5071448;28;20067;-82
2021/08/07 09:12:55;;;;;;;3.80;1.65;;;;;;;22.23;56.79;95274.34;5060608;28;20040;-82
2021/08/07 09:15:39;;;;;;;4.20;1.57;;;;;;;22.03;57.91;95272.25;5067363;28;20059;-82
2021/08/07 09:18:24;;;;;;;7.32;1.83;;;;;;;22.19;57.11;95278.59;5055563;28;20475;-82
2021/08/07 09:21:15;;;;;;;5.28;1.77;;;;;;;23.14;55.77;95271.47;5064288;28;20036;-82
2021/08/07 09:23:44;;;;;;;4.93;1.90;;;;;;;23.26;55.45;95266.66;5067884;28;20063;-82
2021/08/07 09:26:30;;;;;;;4.72;1.80;;;;;;;22.62;56.26;95277.56;5069236;28;20021;-80
2021/08/07 09:28:59;;;;;;;3.35;1.35;;;;;;;22.36;56.77;95273.91;5062321;28;20043;-78
2021/08/07 09:31:36;;;;;;;6.10;1.77;;;;;;;22.63;56.36;95263.09;5090518;28;20477;-80
2021/08/07 09:34:19;;;;;;;4.65;1.70;;;;;;;22.31;58.77;95253.25;5077802;28;20025;-79
2021/08/07 09:36:53;;;;;;;3.42;1.50;;;;;;;21.80;59.54;95255.50;5075020;28;20394;-81
2021/08/07 09:39:35;;;;;;;5.95;2.03;;;;;;;21.83;58.60;95259.50;5063865;28;20124;-83
2021/08/07 09:42:03;;;;;;;3.83;1.52;;;;;;;22.10;57.95;95251.47;5067862;28;20035;-82
2021/08/07 09:44:35;;;;;;;4.10;1.75;;;;;;;21.75;59.40;95258.09;5077251;28;20044;-82
2021/08/07 09:47:15;;;;;;;3.45;1.73;;;;;;;22.12;58.98;95246.66;5087738;28;20044;-81
2021/08/07 09:49:46;;;;;;;4.78;1.73;;;;;;;21.93;59.02;95251.59;5056372;28;20028;-82
2021/08/07 09:52:14;;;;;;;5.03;1.85;;;;;;;22.11;58.10;95240.50;5063594;28;20031;-83
2021/08/07 09:54:43;;;;;;;5.00;1.50;;;;;;;22.11;57.60;95256.56;5079447;28;20024;-82
2021/08/07 09:57:24;;;;;;;5.78;1.83;;;;;;;21.59;59.87;95259.00;5050962;28;20090;-81
2021/08/07 09:59:50;;;;;;;3.88;1.50;;;;;;;21.53;60.74;95255.50;5059938;28;20708;-80
2021/08/07 10:02:31;;;;;;;5.82;1.80;;;;;;;21.58;59.79;95249.38;5068540;28;20020;-82
2021/08/07 10:04:59;;;;;;;2.63;1.60;;;;;;;21.47;59.30;95253.81;5066395;28;20036;-81
2021/08/07 10:07:26;;;;;;;3.72;1.65;;;;;;;21.42;60.39;95254.56;5084617;28;20385;-83
2021/08/07 10:10:22;;;;;;;5.95;2.33;;;;;;;21.13;60.47;95253.94;5076666;28;20039;-82
2021/08/07 10:12:54;;;;;;;4.70;1.63;;;;;;;21.00;61.27;95264.22;5074034;28;20032;-81
2021/08/07 10:15:33;;;;;;;7.78;1.95;;;;;;;20.91;62.09;95267.31;5063620;28;20081;-81
2021/08/07 10:18:00;;;;;;;5.15;1.90;;;;;;;20.73;63.55;95272.94;5080918;28;20036;-79
2021/08/07 10:20:28;;;;;;;6.15;1.65;;;;;;;20.70;64.05;95279.59;5073281;28;20028;-82
2021/08/07 10:22:55;;;;;;;5.75;2.05;;;;;;;20.61;64.39;95278.38;5062293;28;20115;-83
2021/08/07 10:25:22;;;;;;;7.63;1.83;;;;;;;20.56;66.31;95288.19;5086516;28;20312;-82
2021/08/07 10:27:51;;;;;;;3.83;1.70;;;;;;;20.39;66.23;95280.19;5063642;28;20044;-81
2021/08/07 10:30:17;;;;;;;6.63;1.65;;;;;;;20.28;68.94;95302.41;5058990;28;20078;-81
2021/08/07 10:32:47;;;;;;;4.72;2.08;;;;;;;20.27;68.20;95304.28;5077614;28;20023;-79
2021/08/07 10:35:14;;;;;;;5.38;1.95;;;;;;;20.23;69.85;95316.50;5071656;28;20463;-79
2021/08/07 10:37:43;;;;;;;5.78;2.22;;;;;;;19.92;71.19;95302.63;5066409;28;20210;-82
2021/08/07 10:40:12;;;;;;;3.85;1.88;;;;;;;19.89;71.67;95300.44;5062337;28;20029;-81
2021/08/07 10:42:38;;;;;;;4.55;1.70;;;;;;;19.78;73.62;95303.97;5076302;28;20097;-78
2021/08/07 10:45:08;;;;;;;4.68;1.90;;;;;;;19.81;77.30;95298.16;5069042;28;20526;-81
2021/08/07 10:47:40;;;;;;;5.45;2.10;;;;;;;19.57;74.75;95301.97;5073073;28;20021;-79
2021/08/07 10:50:25;;;;;;;6.05;2.03;;;;;;;19.45;77.39;95293.97;5069682;28;20038;-81
2021/08/07 10:52:54;;;;;;;4.35;2.03;;;;;;;19.23;77.12;95289.31;5065834;28;20517;-79
2021/08/07 10:55:41;;;;;;;5.40;1.80;;;;;;;19.25;76.77;95289.09;5063175;28;20064;-82
2021/08/07 10:58:31;;;;;;;3.20;1.65;;;;;;;19.28;77.81;95278.78;5064717;28;20052;-77
2021/08/07 11:01:19;;;;;;;8.73;2.83;;;;;;;19.12;76.18;95276.03;5060525;28;20036;-79
2021/08/07 11:04:07;;;;;;;6.13;1.60;;;;;;;19.28;75.22;95293.94;5069977;28;20033;-79
2021/08/07 11:06:55;;;;;;;5.32;2.15;;;;;;;19.02;77.61;95296.09;5071115;28;20044;-78
2021/08/07 11:09:27;;;;;;;3.92;1.45;;;;;;;18.88;74.63;95283.25;5083716;28;20063;-78
2021/08/07 11:12:05;;;;;;;5.07;2.00;;;;;;;18.78;74.87;95278.53;5088910;28;20039;-78
2021/08/07 11:14:34;;;;;;;3.83;1.75;;;;;;;18.77;73.51;95279.56;5080917;28;20051;-80
2021/08/07 11:17:05;;;;;;;3.60;1.70;;;;;;;18.63;75.49;95275.50;5081716;28;20050;-80
2021/08/07 11:20:07;;;;;;;4.93;1.88;;;;;;;18.54;75.67;95278.53;5089209;28;20659;-81
2021/08/07 11:22:36;;;;;;;3.85;1.90;;;;;;;18.64;76.08;95277.91;5006931;28;20102;-80
2021/08/07 11:25:20;;;;;;;3.60;1.85;;;;;;;18.46;77.20;95292.19;5087003;28;20028;-80
2021/08/07 11:30:30;;;;;;;4.50;1.90;;;;;;;18.33;81.72;95305.72;5088508;28;20440;-80
2021/08/07 11:33:03;;;;;;;6.55;2.13;;;;;;;18.28;85.24;95317.06;5074164;28;20036;-79
2021/08/07 11:35:38;;;;;;;5.78;2.10;;;;;;;17.96;87.17;95329.00;5091988;28;20063;-79
2021/08/07 11:38:10;;;;;;;5.57;2.00;;;;;;;17.73;85.92;95340.34;5072645;28;20773;-77
2021/08/07 11:40:51;;;;;;;4.38;1.90;;;;;;;17.50;86.18;95336.56;5054968;28;20076;-81
2021/08/07 11:43:23;;;;;;;7.53;1.95;;;;;;;17.40;87.79;95333.63;5088555;28;20127;-76
2021/08/07 11:45:55;;;;;;;4.18;1.80;;;;;;;17.24;86.36;95326.28;5096893;28;20036;-78
2021/08/07 11:48:26;;;;;;;7.45;2.38;;;;;;;17.16;86.54;95314.09;5076286;28;20090;-80